sensor_id;sensor_type;location;lat;lon;timestamp;P1;durP1;ratioP1;P2;durP2;ratioP2
14933;SDS011;7560;51.364;12.384;2023-04-23T00:04:22;9.32;;;6.20;;
14933;SDS011;7560;51.364;12.384;2023-04-23T00:09:26;8.98;;;6.45;;
14933;SDS011;7560;51.364;12.384;2023-04-23T00:14:31;8.80;;;6.03;;
14933;SDS011;7560;51.364;12.384;2023-04-23T00:19:33;8.10;;;6.03;;
14933;SDS011;7560;51.364;12.384;2023-04-23T00:24:38;8.10;;;6.20;;
14933;SDS011;7560;51.364;12.384;2023-04-23T00:29:43;9.82;;;6.40;;
14933;SDS011;7560;51.364;12.384;2023-04-23T00:34:46;8.55;;;6.60;;
14933;SDS011;7560;51.364;12.384;2023-04-23T00:39:49;7.85;;;5.85;;
14933;SDS011;7560;51.364;12.384;2023-04-23T00:44:51;8.90;;;5.72;;
14933;SDS011;7560;51.364;12.384;2023-04-23T00:49:52;6.32;;;5.25;;
14933;SDS011;7560;51.364;12.384;2023-04-23T00:54:56;7.03;;;5.50;;
14933;SDS011;7560;51.364;12.384;2023-04-23T00:59:58;8.68;;;5.28;;
14933;SDS011;7560;51.364;12.384;2023-04-23T01:05:00;7.97;;;5.40;;
14933;SDS011;7560;51.364;12.384;2023-04-23T01:10:05;7.50;;;5.18;;
14933;SDS011;7560;51.364;12.384;2023-04-23T01:15:08;6.85;;;5.22;;
14933;SDS011;7560;51.364;12.384;2023-04-23T01:20:10;7.63;;;5.22;;
14933;SDS011;7560;51.364;12.384;2023-04-23T01:25:12;8.20;;;5.40;;
14933;SDS011;7560;51.364;12.384;2023-04-23T01:30:14;8.98;;;4.82;;
14933;SDS011;7560;51.364;12.384;2023-04-23T01:35:16;6.63;;;5.28;;
14933;SDS011;7560;51.364;12.384;2023-04-23T01:40:19;6.32;;;5.10;;
14933;SDS011;7560;51.364;12.384;2023-04-23T01:45:21;5.88;;;4.93;;
14933;SDS011;7560;51.364;12.384;2023-04-23T01:50:23;6.07;;;5.22;;
14933;SDS011;7560;51.364;12.384;2023-04-23T01:55:26;8.63;;;5.32;;
14933;SDS011;7560;51.364;12.384;2023-04-23T02:00:28;8.60;;;5.32;;
14933;SDS011;7560;51.364;12.384;2023-04-23T02:05:29;8.75;;;5.70;;
14933;SDS011;7560;51.364;12.384;2023-04-23T02:10:35;6.80;;;5.18;;
14933;SDS011;7560;51.364;12.384;2023-04-23T02:15:37;8.85;;;5.47;;
14933;SDS011;7560;51.364;12.384;2023-04-23T02:20:38;9.65;;;5.72;;
14933;SDS011;7560;51.364;12.384;2023-04-23T02:25:41;7.10;;;5.55;;
14933;SDS011;7560;51.364;12.384;2023-04-23T02:30:43;7.95;;;5.63;;
14933;SDS011;7560;51.364;12.384;2023-04-23T02:35:47;7.75;;;5.80;;
14933;SDS011;7560;51.364;12.384;2023-04-23T02:40:50;7.25;;;5.82;;
14933;SDS011;7560;51.364;12.384;2023-04-23T02:45:52;11.00;;;6.22;;
14933;SDS011;7560;51.364;12.384;2023-04-23T02:50:53;8.80;;;6.07;;
14933;SDS011;7560;51.364;12.384;2023-04-23T02:55:55;6.15;;;5.55;;
14933;SDS011;7560;51.364;12.384;2023-04-23T03:00:57;6.50;;;5.10;;
14933;SDS011;7560;51.364;12.384;2023-04-23T03:06:00;6.88;;;5.40;;
14933;SDS011;7560;51.364;12.384;2023-04-23T03:11:02;6.63;;;5.15;;
14933;SDS011;7560;51.364;12.384;2023-04-23T03:16:04;7.15;;;5.50;;
14933;SDS011;7560;51.364;12.384;2023-04-23T03:21:06;5.50;;;5.00;;
14933;SDS011;7560;51.364;12.384;2023-04-23T03:26:08;7.20;;;5.35;;
14933;SDS011;7560;51.364;12.384;2023-04-23T03:31:09;9.63;;;5.28;;
14933;SDS011;7560;51.364;12.384;2023-04-23T03:36:12;8.80;;;5.78;;
14933;SDS011;7560;51.364;12.384;2023-04-23T03:41:13;6.63;;;5.35;;
14933;SDS011;7560;51.364;12.384;2023-04-23T03:46:15;5.75;;;5.00;;
14933;SDS011;7560;51.364;12.384;2023-04-23T03:51:18;6.57;;;5.30;;
14933;SDS011;7560;51.364;12.384;2023-04-23T03:56:24;7.13;;;5.68;;
14933;SDS011;7560;51.364;12.384;2023-04-23T04:01:27;7.60;;;5.47;;
14933;SDS011;7560;51.364;12.384;2023-04-23T04:06:29;6.43;;;5.60;;
14933;SDS011;7560;51.364;12.384;2023-04-23T04:11:31;7.78;;;5.32;;
14933;SDS011;7560;51.364;12.384;2023-04-23T04:16:33;7.40;;;5.80;;
14933;SDS011;7560;51.364;12.384;2023-04-23T04:21:35;5.78;;;4.85;;
14933;SDS011;7560;51.364;12.384;2023-04-23T04:26:37;7.80;;;4.78;;
14933;SDS011;7560;51.364;12.384;2023-04-23T04:31:39;6.90;;;4.65;;
14933;SDS011;7560;51.364;12.384;2023-04-23T04:36:42;6.75;;;4.75;;
14933;SDS011;7560;51.364;12.384;2023-04-23T04:41:45;6.55;;;5.28;;
14933;SDS011;7560;51.364;12.384;2023-04-23T04:46:48;8.75;;;5.22;;
14933;SDS011;7560;51.364;12.384;2023-04-23T04:51:53;5.43;;;4.68;;
14933;SDS011;7560;51.364;12.384;2023-04-23T04:56:55;8.07;;;5.72;;
14933;SDS011;7560;51.364;12.384;2023-04-23T05:01:57;11.23;;;6.43;;
14933;SDS011;7560;51.364;12.384;2023-04-23T05:07:02;9.02;;;6.05;;
14933;SDS011;7560;51.364;12.384;2023-04-23T05:12:04;8.25;;;5.88;;
14933;SDS011;7560;51.364;12.384;2023-04-23T05:17:07;5.95;;;5.28;;
14933;SDS011;7560;51.364;12.384;2023-04-23T05:22:10;7.22;;;5.30;;
14933;SDS011;7560;51.364;12.384;2023-04-23T05:27:14;6.50;;;4.78;;
14933;SDS011;7560;51.364;12.384;2023-04-23T05:32:16;5.25;;;3.80;;
14933;SDS011;7560;51.364;12.384;2023-04-23T05:37:18;4.85;;;4.28;;
14933;SDS011;7560;51.364;12.384;2023-04-23T05:42:20;3.42;;;2.78;;
14933;SDS011;7560;51.364;12.384;2023-04-23T05:47:24;4.15;;;2.80;;
14933;SDS011;7560;51.364;12.384;2023-04-23T05:52:26;3.22;;;2.78;;
14933;SDS011;7560;51.364;12.384;2023-04-23T05:57:31;4.30;;;3.00;;
14933;SDS011;7560;51.364;12.384;2023-04-23T06:02:34;3.75;;;3.08;;
14933;SDS011;7560;51.364;12.384;2023-04-23T06:07:38;3.75;;;2.80;;
14933;SDS011;7560;51.364;12.384;2023-04-23T06:12:41;4.13;;;3.22;;
14933;SDS011;7560;51.364;12.384;2023-04-23T06:17:43;3.78;;;3.00;;
14933;SDS011;7560;51.364;12.384;2023-04-23T06:22:47;4.40;;;2.90;;
14933;SDS011;7560;51.364;12.384;2023-04-23T06:27:50;2.83;;;2.50;;
14933;SDS011;7560;51.364;12.384;2023-04-23T06:32:53;3.10;;;2.80;;
14933;SDS011;7560;51.364;12.384;2023-04-23T06:37:55;3.47;;;2.53;;
14933;SDS011;7560;51.364;12.384;2023-04-23T06:42:56;3.08;;;2.78;;
14933;SDS011;7560;51.364;12.384;2023-04-23T06:48:00;4.00;;;2.80;;
14933;SDS011;7560;51.364;12.384;2023-04-23T06:53:04;5.07;;;2.63;;
14933;SDS011;7560;51.364;12.384;2023-04-23T06:58:07;4.30;;;2.45;;
14933;SDS011;7560;51.364;12.384;2023-04-23T07:03:12;2.53;;;2.33;;
14933;SDS011;7560;51.364;12.384;2023-04-23T07:08:14;3.20;;;2.40;;
14933;SDS011;7560;51.364;12.384;2023-04-23T07:13:17;2.38;;;2.17;;
14933;SDS011;7560;51.364;12.384;2023-04-23T07:18:19;2.50;;;2.30;;
14933;SDS011;7560;51.364;12.384;2023-04-23T07:23:33;3.30;;;2.50;;
14933;SDS011;7560;51.364;12.384;2023-04-23T07:28:37;4.05;;;2.30;;
14933;SDS011;7560;51.364;12.384;2023-04-23T07:33:39;3.08;;;2.30;;
14933;SDS011;7560;51.364;12.384;2023-04-23T07:38:44;3.22;;;2.13;;
14933;SDS011;7560;51.364;12.384;2023-04-23T07:43:49;3.47;;;2.63;;
14933;SDS011;7560;51.364;12.384;2023-04-23T07:48:51;2.53;;;2.33;;
14933;SDS011;7560;51.364;12.384;2023-04-23T07:53:55;2.78;;;2.10;;
14933;SDS011;7560;51.364;12.384;2023-04-23T07:58:58;2.33;;;1.98;;
14933;SDS011;7560;51.364;12.384;2023-04-23T08:04:03;2.08;;;1.90;;
14933;SDS011;7560;51.364;12.384;2023-04-23T08:09:05;2.83;;;2.28;;
14933;SDS011;7560;51.364;12.384;2023-04-23T08:14:09;3.22;;;2.70;;
14933;SDS011;7560;51.364;12.384;2023-04-23T08:19:11;2.83;;;2.38;;
14933;SDS011;7560;51.364;12.384;2023-04-23T08:24:13;2.10;;;1.83;;
14933;SDS011;7560;51.364;12.384;2023-04-23T08:29:16;2.53;;;1.67;;
14933;SDS011;7560;51.364;12.384;2023-04-23T08:34:21;2.25;;;1.38;;
14933;SDS011;7560;51.364;12.384;2023-04-23T08:39:23;1.50;;;1.40;;
14933;SDS011;7560;51.364;12.384;2023-04-23T08:44:27;2.13;;;1.30;;
14933;SDS011;7560;51.364;12.384;2023-04-23T08:49:32;1.55;;;1.45;;
14933;SDS011;7560;51.364;12.384;2023-04-23T08:54:35;2.05;;;1.80;;
14933;SDS011;7560;51.364;12.384;2023-04-23T08:59:41;1.92;;;1.80;;
14933;SDS011;7560;51.364;12.384;2023-04-23T09:04:46;2.10;;;1.90;;
14933;SDS011;7560;51.364;12.384;2023-04-23T09:09:56;2.78;;;2.20;;
14933;SDS011;7560;51.364;12.384;2023-04-23T09:15:01;2.65;;;2.45;;
14933;SDS011;7560;51.364;12.384;2023-04-23T09:20:12;2.20;;;2.03;;
14933;SDS011;7560;51.364;12.384;2023-04-23T09:25:16;2.67;;;2.47;;
14933;SDS011;7560;51.364;12.384;2023-04-23T09:30:19;3.72;;;3.03;;
14933;SDS011;7560;51.364;12.384;2023-04-23T09:35:25;3.22;;;2.42;;
14933;SDS011;7560;51.364;12.384;2023-04-23T09:40:35;3.05;;;2.67;;
14933;SDS011;7560;51.364;12.384;2023-04-23T09:45:49;2.90;;;2.60;;
14933;SDS011;7560;51.364;12.384;2023-04-23T09:50:51;8.48;;;5.00;;
14933;SDS011;7560;51.364;12.384;2023-04-23T09:55:55;4.03;;;3.33;;
14933;SDS011;7560;51.364;12.384;2023-04-23T10:01:08;3.30;;;2.75;;
14933;SDS011;7560;51.364;12.384;2023-04-23T10:06:13;3.00;;;2.70;;
14933;SDS011;7560;51.364;12.384;2023-04-23T10:11:36;3.40;;;2.60;;
14933;SDS011;7560;51.364;12.384;2023-04-23T10:16:40;2.67;;;2.10;;
14933;SDS011;7560;51.364;12.384;2023-04-23T10:21:54;3.33;;;2.65;;
14933;SDS011;7560;51.364;12.384;2023-04-23T10:27:20;2.50;;;2.30;;
14933;SDS011;7560;51.364;12.384;2023-04-23T10:32:47;2.88;;;2.10;;
14933;SDS011;7560;51.364;12.384;2023-04-23T10:37:52;6.95;;;4.40;;
14933;SDS011;7560;51.364;12.384;2023-04-23T10:42:56;2.55;;;1.90;;
14933;SDS011;7560;51.364;12.384;2023-04-23T10:48:01;2.40;;;2.20;;
14933;SDS011;7560;51.364;12.384;2023-04-23T10:53:19;1.85;;;1.70;;
14933;SDS011;7560;51.364;12.384;2023-04-23T10:58:22;2.70;;;2.50;;
14933;SDS011;7560;51.364;12.384;2023-04-23T11:03:35;3.22;;;2.70;;
14933;SDS011;7560;51.364;12.384;2023-04-23T11:08:52;6.65;;;4.97;;
14933;SDS011;7560;51.364;12.384;2023-04-23T11:13:55;4.70;;;4.25;;
14933;SDS011;7560;51.364;12.384;2023-04-23T11:19:01;3.50;;;3.20;;
14933;SDS011;7560;51.364;12.384;2023-04-23T11:24:13;4.40;;;3.85;;
14933;SDS011;7560;51.364;12.384;2023-04-23T11:29:16;5.38;;;4.75;;
14933;SDS011;7560;51.364;12.384;2023-04-23T11:34:22;3.25;;;3.00;;
14933;SDS011;7560;51.364;12.384;2023-04-23T11:39:28;2.00;;;1.85;;
14933;SDS011;7560;51.364;12.384;2023-04-23T11:44:30;2.28;;;2.08;;
14933;SDS011;7560;51.364;12.384;2023-04-23T11:49:35;3.47;;;2.20;;
14933;SDS011;7560;51.364;12.384;2023-04-23T12:06:00;2.95;;;1.83;;
14933;SDS011;7560;51.364;12.384;2023-04-23T12:11:07;2.35;;;1.40;;
14933;SDS011;7560;51.364;12.384;2023-04-23T12:16:12;2.95;;;1.50;;
14933;SDS011;7560;51.364;12.384;2023-04-23T12:21:16;1.73;;;1.27;;
14933;SDS011;7560;51.364;12.384;2023-04-23T12:26:19;2.10;;;1.20;;
14933;SDS011;7560;51.364;12.384;2023-04-23T12:31:25;1.60;;;1.33;;
14933;SDS011;7560;51.364;12.384;2023-04-23T12:36:29;1.60;;;1.02;;
14933;SDS011;7560;51.364;12.384;2023-04-23T12:41:50;1.83;;;1.27;;
14933;SDS011;7560;51.364;12.384;2023-04-23T12:47:03;2.38;;;1.15;;
14933;SDS011;7560;51.364;12.384;2023-04-23T12:52:31;2.25;;;1.30;;
14933;SDS011;7560;51.364;12.384;2023-04-23T12:57:33;1.63;;;1.30;;
14933;SDS011;7560;51.364;12.384;2023-04-23T13:02:42;2.20;;;1.42;;
14933;SDS011;7560;51.364;12.384;2023-04-23T13:07:49;5.90;;;1.40;;
14933;SDS011;7560;51.364;12.384;2023-04-23T13:18:50;1.80;;;1.30;;
14933;SDS011;7560;51.364;12.384;2023-04-23T13:30:14;2.20;;;1.27;;
14933;SDS011;7560;51.364;12.384;2023-04-23T13:42:06;1.67;;;1.30;;
14933;SDS011;7560;51.364;12.384;2023-04-23T13:47:10;1.70;;;1.30;;
14933;SDS011;7560;51.364;12.384;2023-04-23T13:52:12;1.70;;;1.20;;
14933;SDS011;7560;51.364;12.384;2023-04-23T13:57:14;1.45;;;1.20;;
14933;SDS011;7560;51.364;12.384;2023-04-23T14:02:15;2.30;;;1.15;;
14933;SDS011;7560;51.364;12.384;2023-04-23T14:07:17;2.80;;;1.23;;
14933;SDS011;7560;51.364;12.384;2023-04-23T14:12:19;1.63;;;1.42;;
14933;SDS011;7560;51.364;12.384;2023-04-23T14:17:21;2.22;;;1.05;;
14933;SDS011;7560;51.364;12.384;2023-04-23T14:22:26;1.20;;;1.00;;
14933;SDS011;7560;51.364;12.384;2023-04-23T14:27:33;1.45;;;1.20;;
14933;SDS011;7560;51.364;12.384;2023-04-23T14:32:41;1.70;;;1.05;;
14933;SDS011;7560;51.364;12.384;2023-04-23T14:37:43;1.20;;;1.10;;
14933;SDS011;7560;51.364;12.384;2023-04-23T14:42:46;2.85;;;1.27;;
14933;SDS011;7560;51.364;12.384;2023-04-23T14:47:53;2.03;;;1.23;;
14933;SDS011;7560;51.364;12.384;2023-04-23T14:52:56;1.33;;;1.10;;
14933;SDS011;7560;51.364;12.384;2023-04-23T14:57:59;1.20;;;1.10;;
14933;SDS011;7560;51.364;12.384;2023-04-23T15:03:00;1.75;;;1.00;;
14933;SDS011;7560;51.364;12.384;2023-04-23T15:08:07;1.33;;;1.23;;
14933;SDS011;7560;51.364;12.384;2023-04-23T15:18:13;1.30;;;1.20;;
14933;SDS011;7560;51.364;12.384;2023-04-23T15:23:16;1.52;;;1.20;;
14933;SDS011;7560;51.364;12.384;2023-04-23T15:28:21;1.33;;;1.10;;
14933;SDS011;7560;51.364;12.384;2023-04-23T15:33:23;1.67;;;1.40;;
14933;SDS011;7560;51.364;12.384;2023-04-23T15:38:26;1.30;;;1.20;;
14933;SDS011;7560;51.364;12.384;2023-04-23T15:43:28;1.02;;;1.00;;
14933;SDS011;7560;51.364;12.384;2023-04-23T15:48:29;1.20;;;1.10;;
14933;SDS011;7560;51.364;12.384;2023-04-23T15:53:31;1.60;;;1.50;;
14933;SDS011;7560;51.364;12.384;2023-04-23T15:58:33;1.73;;;1.27;;
14933;SDS011;7560;51.364;12.384;2023-04-23T16:03:35;1.70;;;1.50;;
14933;SDS011;7560;51.364;12.384;2023-04-23T16:08:37;2.45;;;1.13;;
14933;SDS011;7560;51.364;12.384;2023-04-23T16:13:40;1.92;;;1.33;;
14933;SDS011;7560;51.364;12.384;2023-04-23T16:18:44;1.13;;;1.13;;
14933;SDS011;7560;51.364;12.384;2023-04-23T16:23:46;2.03;;;1.45;;
14933;SDS011;7560;51.364;12.384;2023-04-23T16:28:47;1.50;;;1.40;;
14933;SDS011;7560;51.364;12.384;2023-04-23T16:34:01;3.85;;;1.42;;
14933;SDS011;7560;51.364;12.384;2023-04-23T16:39:03;1.23;;;1.13;;
14933;SDS011;7560;51.364;12.384;2023-04-23T16:44:05;1.52;;;1.20;;
14933;SDS011;7560;51.364;12.384;2023-04-23T16:49:06;1.80;;;1.20;;
14933;SDS011;7560;51.364;12.384;2023-04-23T16:54:08;1.58;;;1.40;;
14933;SDS011;7560;51.364;12.384;2023-04-23T16:59:11;1.75;;;1.65;;
14933;SDS011;7560;51.364;12.384;2023-04-23T17:04:12;2.17;;;1.52;;
14933;SDS011;7560;51.364;12.384;2023-04-23T17:09:17;1.52;;;1.30;;
14933;SDS011;7560;51.364;12.384;2023-04-23T17:14:19;1.30;;;1.20;;
14933;SDS011;7560;51.364;12.384;2023-04-23T17:19:23;1.33;;;1.25;;
14933;SDS011;7560;51.364;12.384;2023-04-23T17:24:24;2.65;;;1.35;;
14933;SDS011;7560;51.364;12.384;2023-04-23T17:29:26;1.85;;;1.40;;
14933;SDS011;7560;51.364;12.384;2023-04-23T17:34:28;1.40;;;1.30;;
14933;SDS011;7560;51.364;12.384;2023-04-23T17:39:30;1.40;;;1.30;;
14933;SDS011;7560;51.364;12.384;2023-04-23T17:44:32;1.50;;;1.33;;
14933;SDS011;7560;51.364;12.384;2023-04-23T17:49:35;2.75;;;1.65;;
14933;SDS011;7560;51.364;12.384;2023-04-23T17:54:37;1.50;;;1.40;;
14933;SDS011;7560;51.364;12.384;2023-04-23T17:59:38;1.88;;;1.60;;
14933;SDS011;7560;51.364;12.384;2023-04-23T18:04:40;1.85;;;1.42;;
14933;SDS011;7560;51.364;12.384;2023-04-23T18:09:42;1.40;;;1.30;;
14933;SDS011;7560;51.364;12.384;2023-04-23T18:14:44;2.63;;;2.00;;
14933;SDS011;7560;51.364;12.384;2023-04-23T18:19:46;1.83;;;1.73;;
14933;SDS011;7560;51.364;12.384;2023-04-23T18:24:49;1.77;;;1.67;;
14933;SDS011;7560;51.364;12.384;2023-04-23T18:29:51;1.70;;;1.60;;
14933;SDS011;7560;51.364;12.384;2023-04-23T18:34:53;4.03;;;1.80;;
14933;SDS011;7560;51.364;12.384;2023-04-23T18:39:56;2.42;;;2.08;;
14933;SDS011;7560;51.364;12.384;2023-04-23T18:44:58;2.72;;;1.92;;
14933;SDS011;7560;51.364;12.384;2023-04-23T18:50:00;2.20;;;2.00;;
14933;SDS011;7560;51.364;12.384;2023-04-23T18:55:08;2.80;;;2.10;;
14933;SDS011;7560;51.364;12.384;2023-04-23T19:00:10;2.85;;;1.95;;
14933;SDS011;7560;51.364;12.384;2023-04-23T19:05:12;2.33;;;1.90;;
14933;SDS011;7560;51.364;12.384;2023-04-23T19:10:14;3.13;;;2.30;;
14933;SDS011;7560;51.364;12.384;2023-04-23T19:15:16;2.35;;;2.15;;
14933;SDS011;7560;51.364;12.384;2023-04-23T19:20:19;2.30;;;1.98;;
14933;SDS011;7560;51.364;12.384;2023-04-23T19:25:22;2.58;;;2.17;;
14933;SDS011;7560;51.364;12.384;2023-04-23T19:30:24;2.13;;;1.92;;
14933;SDS011;7560;51.364;12.384;2023-04-23T19:35:26;4.13;;;2.13;;
14933;SDS011;7560;51.364;12.384;2023-04-23T19:40:27;3.90;;;2.20;;
14933;SDS011;7560;51.364;12.384;2023-04-23T19:45:34;3.03;;;2.20;;
14933;SDS011;7560;51.364;12.384;2023-04-23T19:50:36;2.33;;;2.00;;
14933;SDS011;7560;51.364;12.384;2023-04-23T19:55:37;2.83;;;2.30;;
14933;SDS011;7560;51.364;12.384;2023-04-23T20:00:41;2.75;;;2.40;;
14933;SDS011;7560;51.364;12.384;2023-04-23T20:05:44;2.40;;;2.20;;
14933;SDS011;7560;51.364;12.384;2023-04-23T20:10:46;2.88;;;2.47;;
14933;SDS011;7560;51.364;12.384;2023-04-23T20:15:52;3.05;;;2.60;;
14933;SDS011;7560;51.364;12.384;2023-04-23T20:20:54;2.65;;;2.45;;
14933;SDS011;7560;51.364;12.384;2023-04-23T20:25:56;4.13;;;2.40;;
14933;SDS011;7560;51.364;12.384;2023-04-23T20:30:57;3.42;;;2.75;;
14933;SDS011;7560;51.364;12.384;2023-04-23T20:35:59;4.32;;;2.63;;
14933;SDS011;7560;51.364;12.384;2023-04-23T20:41:01;5.57;;;2.90;;
14933;SDS011;7560;51.364;12.384;2023-04-23T20:46:04;4.25;;;3.40;;
14933;SDS011;7560;51.364;12.384;2023-04-23T20:51:10;3.67;;;2.80;;
14933;SDS011;7560;51.364;12.384;2023-04-23T20:56:15;4.35;;;2.80;;
14933;SDS011;7560;51.364;12.384;2023-04-23T21:01:18;6.30;;;2.88;;
14933;SDS011;7560;51.364;12.384;2023-04-23T21:06:20;3.65;;;2.90;;
14933;SDS011;7560;51.364;12.384;2023-04-23T21:11:27;5.25;;;2.72;;
14933;SDS011;7560;51.364;12.384;2023-04-23T21:16:29;3.53;;;3.05;;
14933;SDS011;7560;51.364;12.384;2023-04-23T21:21:31;3.45;;;2.70;;
14933;SDS011;7560;51.364;12.384;2023-04-23T21:26:33;3.25;;;2.80;;
14933;SDS011;7560;51.364;12.384;2023-04-23T21:31:43;3.40;;;2.95;;
14933;SDS011;7560;51.364;12.384;2023-04-23T21:36:47;3.35;;;2.97;;
14933;SDS011;7560;51.364;12.384;2023-04-23T21:41:49;3.25;;;2.95;;
14933;SDS011;7560;51.364;12.384;2023-04-23T21:46:51;2.95;;;2.58;;
14933;SDS011;7560;51.364;12.384;2023-04-23T21:51:53;3.05;;;2.75;;
14933;SDS011;7560;51.364;12.384;2023-04-23T21:56:56;12.02;;;3.60;;
14933;SDS011;7560;51.364;12.384;2023-04-23T22:01:58;3.08;;;2.58;;
14933;SDS011;7560;51.364;12.384;2023-04-23T22:06:59;3.38;;;3.08;;
14933;SDS011;7560;51.364;12.384;2023-04-23T22:12:06;3.25;;;2.85;;
14933;SDS011;7560;51.364;12.384;2023-04-23T22:17:08;5.07;;;3.13;;
14933;SDS011;7560;51.364;12.384;2023-04-23T22:22:10;3.33;;;2.60;;
14933;SDS011;7560;51.364;12.384;2023-04-23T22:27:11;3.05;;;2.75;;
14933;SDS011;7560;51.364;12.384;2023-04-23T22:32:13;5.15;;;3.05;;
14933;SDS011;7560;51.364;12.384;2023-04-23T22:37:15;5.28;;;3.33;;
14933;SDS011;7560;51.364;12.384;2023-04-23T22:42:17;3.95;;;2.90;;
14933;SDS011;7560;51.364;12.384;2023-04-23T22:47:19;2.78;;;2.53;;
14933;SDS011;7560;51.364;12.384;2023-04-23T22:52:20;3.08;;;2.25;;
14933;SDS011;7560;51.364;12.384;2023-04-23T22:57:22;3.88;;;3.00;;
14933;SDS011;7560;51.364;12.384;2023-04-23T23:02:24;3.40;;;2.60;;
14933;SDS011;7560;51.364;12.384;2023-04-23T23:07:27;3.40;;;2.30;;
14933;SDS011;7560;51.364;12.384;2023-04-23T23:12:30;4.30;;;2.60;;
14933;SDS011;7560;51.364;12.384;2023-04-23T23:17:31;2.92;;;2.70;;
14933;SDS011;7560;51.364;12.384;2023-04-23T23:22:34;2.90;;;2.55;;
14933;SDS011;7560;51.364;12.384;2023-04-23T23:27:36;4.35;;;2.72;;
14933;SDS011;7560;51.364;12.384;2023-04-23T23:32:37;5.90;;;2.20;;
14933;SDS011;7560;51.364;12.384;2023-04-23T23:37:39;1.70;;;1.48;;
14933;SDS011;7560;51.364;12.384;2023-04-23T23:42:41;1.70;;;1.60;;
14933;SDS011;7560;51.364;12.384;2023-04-23T23:47:43;3.67;;;1.50;;
14933;SDS011;7560;51.364;12.384;2023-04-23T23:52:45;1.60;;;1.27;;
14933;SDS011;7560;51.364;12.384;2023-04-23T23:57:47;1.48;;;1.38;;
